createdAt,value
2018-07-05T00:01:57.198Z,22.30
2018-07-05T00:04:41.243Z,22.10
2018-07-05T00:07:23.428Z,21.90
2018-07-05T00:10:05.645Z,21.90
2018-07-05T00:12:47.342Z,21.90
2018-07-05T00:15:30.568Z,22.00
2018-07-05T00:18:15.848Z,21.90
2018-07-05T00:20:58.863Z,21.80
2018-07-05T00:23:41.157Z,21.60
2018-07-05T00:26:56.424Z,21.50
2018-07-05T00:29:38.961Z,21.20
2018-07-05T00:32:21.048Z,21.00
2018-07-05T00:38:22.946Z,20.80
2018-07-05T00:41:05.251Z,20.80
2018-07-05T00:43:48.790Z,20.90
2018-07-05T00:46:30.681Z,20.90
2018-07-05T00:49:13.397Z,20.90
2018-07-05T00:51:55.057Z,20.80
2018-07-05T00:54:37.396Z,20.80
2018-07-05T00:57:18.981Z,20.70
2018-07-05T01:00:01.082Z,20.80
2018-07-05T01:02:43.285Z,21.00
2018-07-05T01:05:26.513Z,21.10
2018-07-05T01:08:09.023Z,21.10
2018-07-05T01:10:51.226Z,20.80
2018-07-05T01:13:34.351Z,20.80
2018-07-05T01:16:15.632Z,20.80
2018-07-05T01:18:58.146Z,20.80
2018-07-05T01:21:41.072Z,20.70
2018-07-05T01:24:23.470Z,20.70
2018-07-05T01:27:05.776Z,20.60
2018-07-05T01:29:47.890Z,20.50
2018-07-05T01:32:29.056Z,20.30
2018-07-05T01:35:10.751Z,20.20
2018-07-05T01:37:53.872Z,20.30
2018-07-05T01:40:36.061Z,20.30
2018-07-05T01:43:17.560Z,20.40
2018-07-05T01:46:00.547Z,20.40
2018-07-05T01:48:43.504Z,20.40
2018-07-05T01:51:25.506Z,20.30
2018-07-05T01:54:07.704Z,20.30
2018-07-05T01:56:49.786Z,20.20
2018-07-05T01:59:32.625Z,20.10
2018-07-05T02:02:15.646Z,20.10
2018-07-05T02:04:57.617Z,20.00
2018-07-05T02:07:40.198Z,20.10
2018-07-05T02:10:57.182Z,20.20
2018-07-05T02:13:39.684Z,20.40
2018-07-05T02:16:23.116Z,20.40
2018-07-05T02:19:07.370Z,20.20
2018-07-05T02:21:50.333Z,20.10
2018-07-05T02:24:32.676Z,20.00
2018-07-05T02:27:15.006Z,20.20
2018-07-05T02:29:57.617Z,20.20
2018-07-05T02:36:20.188Z,20.10
2018-07-05T02:42:10.805Z,19.90
2018-07-05T02:44:53.935Z,19.80
2018-07-05T02:47:38.286Z,19.80
2018-07-05T02:50:21.256Z,19.70
2018-07-05T02:53:03.581Z,19.60
2018-07-05T02:55:45.098Z,19.60
2018-07-05T02:58:27.198Z,19.60
2018-07-05T03:01:09.709Z,19.60
2018-07-05T03:03:52.644Z,19.60
2018-07-05T03:06:35.241Z,19.60
2018-07-05T03:09:19.631Z,19.60
2018-07-05T03:12:02.721Z,19.50
2018-07-05T03:14:45.776Z,19.60
2018-07-05T03:17:28.140Z,19.60
2018-07-05T03:20:10.557Z,19.60
2018-07-05T03:22:52.557Z,19.60
2018-07-05T03:25:43.053Z,19.60
2018-07-05T03:28:26.178Z,19.60
2018-07-05T03:31:09.927Z,19.60
2018-07-05T03:33:53.046Z,19.70
2018-07-05T03:36:37.707Z,19.70
2018-07-05T03:39:20.623Z,19.70
2018-07-05T03:42:11.727Z,19.80
2018-07-05T03:44:58.136Z,19.80
2018-07-05T03:47:42.228Z,19.90
2018-07-05T03:50:27.522Z,19.90
2018-07-05T03:53:19.898Z,19.90
2018-07-05T03:56:05.484Z,20.00
2018-07-05T03:58:49.842Z,20.00
2018-07-05T04:01:36.448Z,20.10
2018-07-05T04:04:18.031Z,20.20
2018-07-05T04:07:02.239Z,20.20
2018-07-05T04:09:48.074Z,20.30
2018-07-05T04:12:30.812Z,20.30
2018-07-05T04:15:16.268Z,20.50
2018-07-05T04:17:59.701Z,20.50
2018-07-05T04:20:43.724Z,20.60
2018-07-05T04:23:37.223Z,20.80
2018-07-05T04:26:19.288Z,20.90
2018-07-05T04:29:01.924Z,21.00
2018-07-05T04:31:44.025Z,21.00
2018-07-05T04:34:27.147Z,21.10
2018-07-05T04:37:09.445Z,21.20
2018-07-05T04:39:51.862Z,21.30
2018-07-05T04:42:33.962Z,21.30
2018-07-05T04:45:17.906Z,21.40
2018-07-05T04:48:00.764Z,21.40
2018-07-05T04:50:43.235Z,21.50
2018-07-05T04:53:26.364Z,21.60
2018-07-05T04:56:09.796Z,21.60
2018-07-05T04:58:52.704Z,21.70
2018-07-05T05:01:35.009Z,21.70
2018-07-05T05:04:16.504Z,21.80
2018-07-05T05:07:14.485Z,21.80
2018-07-05T05:10:24.226Z,21.90
2018-07-05T05:13:07.353Z,21.90
2018-07-05T05:15:50.275Z,22.00
2018-07-05T05:18:33.088Z,22.00
2018-07-05T05:21:16.319Z,22.10
2018-07-05T05:23:58.620Z,22.10
2018-07-05T05:27:00.382Z,22.10
2018-07-05T05:29:43.302Z,22.10
2018-07-05T05:32:26.529Z,22.20
2018-07-05T05:35:24.713Z,22.20
2018-07-05T05:38:06.909Z,22.30
2018-07-05T05:40:49.320Z,22.20
2018-07-05T05:43:31.521Z,22.30
2018-07-05T05:46:13.829Z,22.30
2018-07-05T05:48:56.341Z,22.40
2018-07-05T05:51:38.336Z,22.40
2018-07-05T05:54:20.525Z,22.50
2018-07-05T05:57:03.739Z,22.50
2018-07-05T05:59:46.183Z,22.60
2018-07-05T06:02:28.348Z,22.60
2018-07-05T06:05:09.865Z,22.70
2018-07-05T06:07:51.963Z,22.70
2018-07-05T06:10:34.474Z,22.80
2018-07-05T06:13:16.479Z,22.80
2018-07-05T06:15:58.749Z,22.90
2018-07-05T06:18:40.121Z,23.00
2018-07-05T06:21:22.365Z,23.00
2018-07-05T06:24:04.670Z,23.10
2018-07-05T06:26:46.976Z,23.30
2018-07-05T06:29:29.168Z,23.40
2018-07-05T06:32:11.587Z,23.50
2018-07-05T06:34:53.790Z,23.60
2018-07-05T06:37:36.513Z,23.80
2018-07-05T06:40:18.313Z,23.90
2018-07-05T06:43:07.874Z,24.00
2018-07-05T06:45:51.840Z,24.10
2018-07-05T06:48:35.129Z,24.10
2018-07-05T06:51:17.660Z,24.10
2018-07-05T06:53:59.861Z,24.00
2018-07-05T06:56:42.048Z,23.90
2018-07-05T07:02:21.116Z,23.80
2018-07-05T07:05:04.137Z,23.70
2018-07-05T07:07:46.647Z,23.60
2018-07-05T07:10:28.850Z,23.60
2018-07-05T07:13:11.361Z,23.50
2018-07-05T07:15:53.288Z,23.50
2018-07-05T07:18:35.459Z,23.40
2018-07-05T07:21:18.073Z,23.30
2018-07-05T07:24:02.759Z,23.30
2018-07-05T07:26:44.428Z,23.20
2018-07-05T07:29:26.396Z,23.20
2018-07-05T07:32:08.932Z,23.20
2018-07-05T07:34:51.035Z,23.10
2018-07-05T07:37:33.274Z,23.00
2018-07-05T07:40:15.542Z,23.00
2018-07-05T07:42:46.072Z,23.00
2018-07-05T07:45:50.300Z,23.00
2018-07-05T07:48:20.513Z,22.90
2018-07-05T07:50:50.517Z,22.90
2018-07-05T07:53:21.060Z,22.90
2018-07-05T07:58:43.418Z,22.90
2018-07-05T08:01:14.469Z,22.90
2018-07-05T08:03:43.867Z,22.90
2018-07-05T08:06:15.320Z,22.80
2018-07-05T08:08:46.278Z,22.80
2018-07-05T08:11:16.894Z,22.70
2018-07-05T08:13:47.419Z,22.70
2018-07-05T08:16:18.254Z,22.70
2018-07-05T08:18:49.369Z,22.70
2018-07-05T08:21:18.899Z,22.70
2018-07-05T08:23:49.225Z,22.70
2018-07-05T08:26:21.108Z,22.80
2018-07-05T08:28:52.535Z,22.80
2018-07-05T08:31:23.814Z,22.80
2018-07-05T08:33:55.925Z,23.00
2018-07-05T08:36:29.351Z,23.10
2018-07-05T08:38:59.876Z,23.20
2018-07-05T08:41:29.080Z,23.30
2018-07-05T08:43:58.068Z,23.40
2018-07-05T08:46:30.549Z,23.60
2018-07-05T19:05:09.473Z,21.60
2018-07-05T19:07:48.658Z,21.30
2018-07-05T19:10:27.655Z,21.30
2018-07-05T19:13:06.539Z,21.10
2018-07-05T19:16:15.871Z,20.90
2018-07-05T19:18:55.180Z,20.90
2018-07-05T19:21:34.324Z,21.00
2018-07-05T19:24:13.591Z,20.90
2018-07-05T19:26:54.213Z,21.00
2018-07-05T19:29:46.737Z,21.10
2018-07-05T19:32:29.284Z,21.10
2018-07-05T19:52:10.238Z,21.00
2018-07-05T19:54:49.235Z,20.80
2018-07-05T19:57:29.133Z,20.90
2018-07-05T20:00:17.559Z,20.70
2018-07-05T20:02:56.573Z,20.90
2018-07-05T20:05:35.464Z,20.80
2018-07-05T20:08:14.311Z,20.70
2018-07-05T20:11:03.701Z,20.70
2018-07-05T20:13:45.665Z,20.60
2018-07-05T20:16:24.789Z,20.80
2018-07-05T20:19:06.589Z,20.90
2018-07-05T20:21:45.481Z,20.80
2018-07-05T20:24:24.373Z,20.80
2018-07-05T20:27:03.193Z,20.60
2018-07-05T20:29:42.054Z,20.70
2018-07-05T20:32:20.933Z,20.60
2018-07-05T20:34:59.869Z,20.60
2018-07-05T20:37:38.709Z,20.70
2018-07-05T20:40:17.521Z,20.80
2018-07-05T20:42:56.423Z,20.60
2018-07-05T20:45:35.398Z,20.60
2018-07-05T20:48:14.412Z,20.50
2018-07-05T20:50:53.469Z,20.50
2018-07-05T20:53:34.713Z,20.40
2018-07-05T20:56:13.633Z,20.20
2018-07-05T20:58:52.709Z,20.00
2018-07-05T21:01:31.564Z,19.90
2018-07-05T21:04:10.505Z,19.80
2018-07-05T21:06:49.884Z,19.60
2018-07-05T21:09:28.721Z,19.50
2018-07-05T21:12:20.677Z,19.50
2018-07-05T21:18:20.534Z,19.30
2018-07-05T21:20:59.522Z,19.20
2018-07-05T21:23:38.441Z,19.20
2018-07-05T21:26:17.437Z,19.20
2018-07-05T21:28:56.509Z,19.10
2018-07-05T21:31:44.477Z,19.00
2018-07-05T21:34:23.389Z,19.00
2018-07-05T21:37:04.045Z,19.10
2018-07-05T21:39:43.201Z,19.10
2018-07-05T21:42:22.225Z,19.00
2018-07-05T21:45:01.182Z,19.00
2018-07-05T21:47:40.205Z,18.90
2018-07-05T21:50:19.221Z,18.90
2018-07-05T21:52:58.459Z,18.90
2018-07-05T21:55:37.470Z,18.90
2018-07-05T21:58:16.607Z,19.00
2018-07-05T22:00:55.441Z,19.00
2018-07-05T22:03:34.286Z,19.00
2018-07-05T22:06:13.364Z,19.00
2018-07-05T22:08:52.464Z,19.00
2018-07-05T22:11:31.446Z,19.00
2018-07-05T22:14:10.437Z,19.10
2018-07-05T22:16:54.869Z,19.10
2018-07-05T22:19:39.469Z,19.10
2018-07-05T22:22:24.042Z,19.20
2018-07-05T22:25:08.597Z,19.10
2018-07-05T22:27:55.510Z,19.00
2018-07-05T22:30:40.737Z,19.00
2018-07-05T22:33:19.591Z,19.00
2018-07-05T22:35:58.386Z,18.90
2018-07-05T22:38:37.322Z,18.90
2018-07-05T22:41:16.969Z,19.00
2018-07-05T22:43:56.385Z,19.00
2018-07-05T22:46:35.309Z,18.90
2018-07-05T22:49:14.332Z,18.90
2018-07-05T22:51:53.237Z,18.90
2018-07-05T22:54:32.149Z,18.80
2018-07-05T22:57:10.965Z,18.80
2018-07-05T22:59:49.945Z,18.80
2018-07-05T23:02:28.875Z,18.80
2018-07-05T23:05:07.769Z,18.80
2018-07-05T23:07:46.822Z,18.80
2018-07-05T23:10:25.841Z,18.70
2018-07-05T23:13:34.891Z,18.80
2018-07-05T23:16:14.582Z,18.80
2018-07-05T23:18:53.393Z,19.10
2018-07-05T23:21:32.266Z,19.40
2018-07-05T23:24:11.097Z,19.50
2018-07-05T23:26:50.054Z,19.40
2018-07-05T23:29:29.003Z,19.30
2018-07-05T23:32:08.041Z,19.30
2018-07-05T23:34:46.975Z,19.30
2018-07-05T23:37:25.861Z,19.10
2018-07-05T23:43:22.881Z,18.90
2018-07-05T23:46:01.786Z,18.80
2018-07-05T23:48:40.637Z,18.90
2018-07-05T23:51:22.317Z,18.90
2018-07-05T23:54:01.273Z,19.00
2018-07-05T23:56:40.094Z,19.10
2018-07-05T23:59:18.983Z,19.10
